createdAt,value
2022-10-14T00:01:47.307Z,100663.00
2022-10-14T00:04:18.782Z,100661.94
2022-10-14T00:06:48.653Z,100659.38
2022-10-14T00:09:17.403Z,100658.53
2022-10-14T00:11:49.391Z,100665.03
2022-10-14T00:14:21.758Z,100655.53
2022-10-14T00:16:55.047Z,100644.25
2022-10-14T00:19:24.687Z,100650.03
2022-10-14T00:21:52.987Z,100651.22
2022-10-14T00:24:21.377Z,100655.53
2022-10-14T00:26:52.799Z,100645.47
2022-10-14T00:29:21.210Z,100641.03
2022-10-14T00:31:56.923Z,100644.50
2022-10-14T00:34:25.810Z,100646.78
2022-10-14T00:36:54.599Z,100639.69
2022-10-14T00:39:23.485Z,100638.75
2022-10-14T00:41:54.201Z,100625.03
2022-10-14T00:45:00.593Z,100629.00
2022-10-14T00:47:32.767Z,100629.13
2022-10-14T00:50:03.336Z,100621.69
2022-10-14T00:52:36.411Z,100618.34
2022-10-14T00:55:09.969Z,100625.41
2022-10-14T00:57:41.099Z,100632.50
2022-10-14T01:00:13.765Z,100618.81
2022-10-14T01:02:45.559Z,100624.81
2022-10-14T01:05:18.838Z,100620.72
2022-10-14T01:08:07.203Z,100612.19
2022-10-14T01:10:45.564Z,100600.94
2022-10-14T01:13:27.544Z,100603.09
2022-10-14T01:16:09.788Z,100612.91
2022-10-14T01:19:38.973Z,100599.25
2022-10-14T01:23:01.242Z,100593.38
2022-10-14T01:26:14.264Z,100599.84
2022-10-14T01:29:24.619Z,100596.13
2022-10-14T01:32:15.140Z,100590.72
2022-10-14T01:34:55.486Z,100598.41
2022-10-14T01:37:47.554Z,100590.00
2022-10-14T01:40:48.954Z,100579.44
2022-10-14T01:43:34.448Z,100579.69
2022-10-14T01:46:06.885Z,100571.28
2022-10-14T01:48:43.387Z,100564.28
2022-10-14T01:51:17.565Z,100574.41
2022-10-14T01:53:52.810Z,100571.53
2022-10-14T01:56:22.143Z,100566.13
2022-10-14T01:59:13.742Z,100560.09
2022-10-14T02:01:56.160Z,100566.34
2022-10-14T02:05:21.429Z,100559.75
2022-10-14T02:07:44.479Z,100552.41
2022-10-14T02:10:32.689Z,100555.31
2022-10-14T02:13:19.054Z,100549.91
2022-10-14T02:15:59.676Z,100546.16
2022-10-14T02:18:41.069Z,100534.53
2022-10-14T02:21:25.433Z,100532.72
2022-10-14T02:24:02.213Z,100547.63
2022-10-14T02:26:33.462Z,100529.13
2022-10-14T02:29:07.019Z,100520.13
2022-10-14T02:31:39.628Z,100518.81
2022-10-14T02:34:13.325Z,100515.91
2022-10-14T02:36:51.756Z,100511.47
2022-10-14T02:39:26.209Z,100511.09
2022-10-14T02:41:54.645Z,100498.25
2022-10-14T02:44:24.276Z,100496.97
2022-10-14T02:46:57.184Z,100500.22
2022-10-14T02:49:25.970Z,100486.88
2022-10-14T02:51:58.652Z,100484.34
2022-10-14T02:54:27.093Z,100470.19
2022-10-14T02:57:02.834Z,100469.84
2022-10-14T02:59:31.778Z,100460.72
2022-10-14T03:02:00.988Z,100466.38
2022-10-14T03:04:30.986Z,100469.13
2022-10-14T03:07:06.930Z,100463.72
2022-10-14T03:09:35.499Z,100459.19
2022-10-14T03:12:04.295Z,100451.50
2022-10-14T03:14:36.745Z,100460.38
2022-10-14T03:17:07.755Z,100457.63
2022-10-14T03:19:36.611Z,100452.19
2022-10-14T03:22:06.867Z,100454.00
2022-10-14T03:24:36.729Z,100441.06
2022-10-14T03:27:05.850Z,100434.91
2022-10-14T03:29:35.451Z,100430.88
2022-10-14T03:32:03.846Z,100429.16
2022-10-14T03:34:34.507Z,100430.88
2022-10-14T03:37:07.983Z,100423.78
2022-10-14T03:39:42.727Z,100426.66
2022-10-14T03:42:11.493Z,100422.00
2022-10-14T03:44:41.009Z,100416.81
2022-10-14T03:47:09.341Z,100426.66
2022-10-14T03:49:39.419Z,100426.81
2022-10-14T03:52:09.649Z,100421.03
2022-10-14T03:54:38.251Z,100423.53
2022-10-14T03:57:06.727Z,100421.00
2022-10-14T03:59:36.509Z,100425.81
2022-10-14T04:02:05.026Z,100429.63
2022-10-14T04:04:33.761Z,100415.38
2022-10-14T04:07:02.321Z,100417.53
2022-10-14T04:09:32.286Z,100404.94
2022-10-14T04:12:03.141Z,100413.31
2022-10-14T04:14:31.601Z,100421.63
2022-10-14T04:17:00.360Z,100415.84
2022-10-14T04:19:31.588Z,100413.56
2022-10-14T04:21:59.942Z,100404.09
2022-10-14T04:24:28.733Z,100408.16
2022-10-14T04:26:59.246Z,100409.59
2022-10-14T04:29:30.052Z,100408.13
2022-10-14T04:31:58.687Z,100407.53
2022-10-14T04:34:27.236Z,100401.88
2022-10-14T04:36:57.889Z,100399.47
2022-10-14T04:39:26.340Z,100400.66
2022-10-14T04:41:59.127Z,100397.66
2022-10-14T04:44:29.961Z,100390.41
2022-10-14T04:46:59.716Z,100388.00
2022-10-14T04:49:28.221Z,100384.38
2022-10-14T04:52:04.012Z,100382.44
2022-10-14T04:54:35.424Z,100389.94
2022-10-14T04:57:07.764Z,100382.53
2022-10-14T04:59:36.771Z,100382.84
2022-10-14T05:02:06.810Z,100382.72
2022-10-14T05:04:39.411Z,100371.31
2022-10-14T05:07:09.150Z,100376.19
2022-10-14T05:09:37.888Z,100372.94
2022-10-14T05:12:08.487Z,100366.91
2022-10-14T05:14:37.076Z,100366.53
2022-10-14T05:17:08.683Z,100366.41
2022-10-14T05:19:37.198Z,100363.63
2022-10-14T05:22:06.042Z,100362.16
2022-10-14T05:24:34.964Z,100353.25
2022-10-14T05:27:06.097Z,100353.00
2022-10-14T05:29:37.373Z,100357.31
2022-10-14T05:32:06.679Z,100353.56
2022-10-14T05:34:37.205Z,100357.50
2022-10-14T05:37:06.650Z,100366.13
2022-10-14T05:39:37.429Z,100362.22
2022-10-14T05:42:09.712Z,100363.19
2022-10-14T05:44:39.809Z,100357.91
2022-10-14T05:47:10.493Z,100369.31
2022-10-14T05:49:40.339Z,100364.84
2022-10-14T05:52:09.668Z,100367.63
2022-10-14T05:54:38.515Z,100370.84
2022-10-14T05:57:08.036Z,100369.31
2022-10-14T07:01:46.259Z,100370.81
2022-10-14T07:04:15.036Z,100382.47
2022-10-14T07:06:43.873Z,100378.59
2022-10-14T07:09:13.612Z,100393.88
2022-10-14T07:11:43.675Z,100384.13
2022-10-14T07:27:24.772Z,100391.91
2022-10-14T07:29:53.674Z,100385.94
2022-10-14T07:32:23.579Z,100402.41
2022-10-14T07:34:53.733Z,100399.63
2022-10-14T07:37:24.766Z,100400.75
2022-10-14T07:39:53.947Z,100408.41
2022-10-14T07:42:22.713Z,100418.41
2022-10-14T07:44:54.513Z,100408.22
2022-10-14T07:47:24.905Z,100418.03
2022-10-14T07:49:53.333Z,100419.03
2022-10-14T07:52:22.065Z,100417.34
2022-10-14T07:54:50.806Z,100424.91
2022-10-14T07:57:19.741Z,100415.31
2022-10-14T07:59:48.617Z,100426.03
2022-10-14T08:02:17.116Z,100425.19
2022-10-14T08:04:47.948Z,100425.19
2022-10-14T08:07:16.626Z,100422.28
2022-10-14T08:09:45.565Z,100424.91
2022-10-14T08:12:14.303Z,100426.72
2022-10-14T08:14:43.721Z,100442.06
2022-10-14T08:17:12.199Z,100435.56
2022-10-14T08:19:40.998Z,100429.28
2022-10-14T08:22:12.330Z,100433.81
2022-10-14T08:24:41.359Z,100431.31
2022-10-14T08:27:11.871Z,100432.84
2022-10-14T08:29:40.811Z,100435.47
2022-10-14T08:32:09.204Z,100439.53
2022-10-14T08:34:37.970Z,100428.97
2022-10-14T08:37:07.054Z,100423.53
2022-10-14T08:39:59.956Z,100426.81
2022-10-14T08:42:48.302Z,100439.78
2022-10-14T08:54:40.065Z,100425.97
2022-10-14T08:57:35.994Z,100434.16
2022-10-14T09:00:22.666Z,100432.38
2022-10-14T09:05:58.725Z,100435.00
2022-10-14T09:08:33.558Z,100437.78
2022-10-14T09:11:02.569Z,100450.44
2022-10-14T09:13:37.479Z,100433.97
2022-10-14T09:16:11.300Z,100428.25
2022-10-14T09:18:44.022Z,100435.84
2022-10-14T09:24:22.484Z,100440.69
2022-10-14T09:26:54.382Z,100445.22
2022-10-14T09:29:30.030Z,100439.63
2022-10-14T09:32:03.482Z,100437.31
2022-10-14T09:34:35.961Z,100427.44
2022-10-14T09:37:26.465Z,100430.88
2022-10-14T09:39:59.131Z,100417.53
2022-10-14T09:42:37.700Z,100401.66
2022-10-14T09:45:15.697Z,100413.34
2022-10-14T09:47:51.376Z,100406.81
2022-10-14T09:50:26.431Z,100403.75
2022-10-14T09:53:01.805Z,100398.88
2022-10-14T09:55:31.208Z,100389.00
2022-10-14T09:58:08.137Z,100393.16
2022-10-14T10:00:40.937Z,100378.22
2022-10-14T10:03:13.622Z,100376.28
2022-10-14T10:05:45.149Z,100370.28
2022-10-14T10:08:22.593Z,100361.34
2022-10-14T10:11:05.418Z,100354.13
2022-10-14T10:13:46.379Z,100340.34
2022-10-14T10:16:26.141Z,100340.09
2022-10-14T10:18:57.780Z,100330.25
2022-10-14T10:21:28.400Z,100330.47
2022-10-14T10:24:00.101Z,100334.22
2022-10-14T10:26:32.574Z,100330.47
2022-10-14T10:29:02.996Z,100339.88
2022-10-14T10:32:08.128Z,100331.22
2022-10-14T10:35:02.659Z,100323.38
2022-10-14T10:37:34.049Z,100335.16
2022-10-14T10:40:20.319Z,100325.59
2022-10-14T10:43:01.403Z,100311.34
2022-10-14T10:45:39.823Z,100316.00
2022-10-14T10:48:19.542Z,100313.91
2022-10-14T10:50:59.225Z,100306.91
2022-10-14T10:53:54.577Z,100308.34
2022-10-14T10:56:34.110Z,100306.34
2022-10-14T10:59:30.546Z,100311.34
2022-10-14T11:02:18.202Z,100314.47
2022-10-14T11:04:51.477Z,100316.91
2022-10-14T11:07:47.420Z,100323.34
2022-10-14T11:10:50.461Z,100316.66
2022-10-14T11:13:32.363Z,100312.47
2022-10-14T11:16:06.937Z,100315.72
2022-10-14T11:18:45.690Z,100307.34
2022-10-14T11:21:27.220Z,100310.78
2022-10-14T11:24:07.503Z,100295.72
2022-10-14T11:26:53.582Z,100295.19
2022-10-14T11:29:38.320Z,100296.69
2022-10-14T11:32:16.808Z,100295.88
2022-10-14T11:34:51.471Z,100288.03
2022-10-14T11:37:31.166Z,100276.66
2022-10-14T11:40:06.441Z,100280.41
2022-10-14T11:42:49.352Z,100278.88
2022-10-14T11:45:46.702Z,100269.59
2022-10-14T11:48:28.193Z,100268.91
2022-10-14T11:51:04.155Z,100266.09
2022-10-14T11:53:58.268Z,100275.31
2022-10-14T11:56:35.747Z,100279.03
2022-10-14T11:59:18.911Z,100272.22
2022-10-14T12:01:53.719Z,100282.41
2022-10-14T12:04:35.461Z,100287.94
2022-10-14T12:07:13.764Z,100280.72
2022-10-14T12:09:57.389Z,100286.38
2022-10-14T12:12:31.679Z,100282.84
2022-10-14T12:15:07.982Z,100281.34
2022-10-14T12:17:44.437Z,100276.59
2022-10-14T12:20:31.931Z,100278.09
2022-10-14T12:23:05.498Z,100274.00
2022-10-14T12:26:04.746Z,100277.16
2022-10-14T12:28:38.076Z,100269.22
2022-10-14T12:31:35.821Z,100267.88
2022-10-14T12:34:30.794Z,100263.06
2022-10-14T12:40:39.500Z,100252.63
2022-10-14T12:43:40.692Z,100243.78
2022-10-14T12:46:27.532Z,100242.66
2022-10-14T12:49:39.720Z,100235.75
2022-10-14T12:52:23.913Z,100232.25
2022-10-14T12:55:00.584Z,100234.72
2022-10-14T12:57:37.324Z,100240.09
2022-10-14T13:00:35.907Z,100227.59
2022-10-14T13:03:18.747Z,100232.44
2022-10-14T13:05:53.312Z,100225.88
2022-10-14T13:08:36.922Z,100224.03
2022-10-14T13:11:32.862Z,100228.41
2022-10-14T13:14:25.355Z,100223.41
2022-10-14T13:17:03.670Z,100213.25
2022-10-14T13:19:47.159Z,100198.06
2022-10-14T13:22:46.162Z,100202.50
2022-10-14T13:25:37.994Z,100200.63
2022-10-14T13:28:25.867Z,100190.84
2022-10-14T13:31:04.923Z,100196.00
2022-10-14T13:33:42.799Z,100199.91
2022-10-14T13:36:40.187Z,100198.84
2022-10-14T13:42:27.228Z,100185.31
2022-10-14T13:45:28.020Z,100180.03
2022-10-14T13:48:17.526Z,100170.06
2022-10-14T13:51:24.744Z,100165.22
2022-10-14T13:54:24.634Z,100161.34
2022-10-14T14:03:02.379Z,100158.19
2022-10-14T14:05:42.635Z,100141.34
2022-10-14T14:11:18.502Z,100135.47
2022-10-14T14:14:00.798Z,100145.44
2022-10-14T14:16:34.762Z,100137.72
2022-10-14T14:19:09.278Z,100133.97
2022-10-14T14:21:41.448Z,100149.31
2022-10-14T14:24:27.799Z,100138.59
2022-10-14T14:27:03.131Z,100138.16
2022-10-14T14:29:34.915Z,100123.22
2022-10-14T14:32:07.444Z,100132.00
2022-10-14T14:34:38.699Z,100125.81
2022-10-14T14:39:59.347Z,100126.38
2022-10-14T14:42:32.609Z,100132.50
2022-10-14T14:45:07.348Z,100125.13
2022-10-14T14:47:36.102Z,100120.53
2022-10-14T14:50:29.643Z,100114.91
2022-10-14T14:52:55.239Z,100109.09
2022-10-14T14:55:43.941Z,100100.19
2022-10-14T14:58:30.414Z,100100.94
2022-10-14T15:00:59.619Z,100090.47
2022-10-14T15:03:30.108Z,100093.25
2022-10-14T15:06:00.911Z,100099.16
2022-10-14T15:08:33.009Z,100101.31
2022-10-14T15:11:02.918Z,100117.53
2022-10-14T15:13:50.025Z,100111.00
2022-10-14T15:16:40.082Z,100104.63
2022-10-14T15:19:16.344Z,100091.66
2022-10-14T15:21:48.077Z,100098.78
2022-10-14T15:24:19.837Z,100095.13
2022-10-14T15:26:48.551Z,100096.13
2022-10-14T15:32:08.491Z,100079.59
2022-10-14T15:34:37.203Z,100075.41
2022-10-14T15:37:07.322Z,100070.94
2022-10-14T15:39:35.983Z,100073.69
2022-10-14T15:42:04.824Z,100060.84
2022-10-14T15:44:35.578Z,100059.19
2022-10-14T15:47:24.662Z,100051.03
2022-10-14T15:49:54.095Z,100043.84
2022-10-14T15:52:26.145Z,100048.47
2022-10-14T15:54:56.213Z,100047.50
2022-10-14T15:57:29.224Z,100052.66
2022-10-14T15:59:59.883Z,100042.34
2022-10-14T16:02:35.444Z,100048.75
2022-10-14T16:05:19.483Z,100044.13
2022-10-14T16:07:49.474Z,100041.91
2022-10-14T16:10:20.244Z,100042.34
2022-10-14T16:12:49.669Z,100028.06
2022-10-14T16:15:36.172Z,100018.44
2022-10-14T16:18:05.148Z,100020.75
2022-10-14T16:20:33.574Z,100023.34
2022-10-14T16:23:04.635Z,100014.31
2022-10-14T16:25:38.935Z,100006.22
2022-10-14T16:28:10.140Z,100014.38
2022-10-14T16:30:42.383Z,100019.59
2022-10-14T16:35:46.183Z,100019.63
2022-10-14T16:38:14.744Z,100020.63
2022-10-14T16:40:43.344Z,100021.03
2022-10-14T16:43:14.143Z,100016.19
2022-10-14T16:45:44.363Z,100022.59
2022-10-14T16:48:13.105Z,100017.47
2022-10-14T16:50:41.793Z,100007.41
2022-10-14T16:53:27.573Z,100013.34
2022-10-14T16:55:58.804Z,100013.28
2022-10-14T16:58:28.574Z,100014.19
2022-10-14T17:01:00.557Z,100005.00
2022-10-14T17:03:30.526Z,100005.72
2022-10-14T17:06:28.607Z,99999.22
2022-10-14T17:09:18.540Z,100008.69
2022-10-14T17:11:50.009Z,100001.25
2022-10-14T17:14:46.423Z,100002.94
2022-10-14T17:17:17.851Z,99993.47
2022-10-14T17:19:48.815Z,99995.06
2022-10-14T17:22:29.493Z,99993.28
2022-10-14T17:36:09.756Z,99998.09
2022-10-14T17:42:19.015Z,99983.50
2022-10-14T17:48:29.126Z,99997.09
2022-10-14T17:50:59.043Z,99995.88
2022-10-14T17:53:40.295Z,99992.41
2022-10-14T17:56:13.172Z,99994.22
2022-10-14T17:58:53.697Z,99996.16
2022-10-14T18:01:37.214Z,99989.06
2022-10-14T18:04:13.039Z,99989.63
2022-10-14T18:06:49.098Z,99992.84
2022-10-14T18:09:22.575Z,99990.63
2022-10-14T18:12:08.641Z,99990.63
2022-10-14T18:14:44.759Z,99993.81
2022-10-14T18:17:15.908Z,99990.06
2022-10-14T18:19:51.868Z,99984.63
2022-10-14T18:22:23.225Z,99986.72
2022-10-14T18:24:55.444Z,99995.75
2022-10-14T18:27:30.116Z,99990.06
2022-10-14T18:30:02.152Z,99991.16
2022-10-14T18:32:33.935Z,99987.81
2022-10-14T18:35:11.802Z,99989.91
2022-10-14T18:37:40.789Z,99983.53
2022-10-14T18:40:22.422Z,99985.59
2022-10-14T18:42:57.700Z,99988.66
2022-10-14T18:45:26.067Z,99985.16
2022-10-14T18:47:55.125Z,99984.84
2022-10-14T18:50:30.763Z,99971.78
2022-10-14T18:53:05.255Z,99975.81
2022-10-14T18:55:40.157Z,99979.41
2022-10-14T18:58:10.308Z,99988.88
2022-10-14T19:00:41.185Z,99989.56
2022-10-14T19:03:09.813Z,99980.69
2022-10-14T19:05:42.885Z,99986.41
2022-10-14T19:10:49.693Z,99978.91
2022-10-14T19:13:19.534Z,99977.91
2022-10-14T19:16:00.687Z,99978.63
2022-10-14T19:19:08.569Z,99970.00
2022-10-14T19:35:46.331Z,99940.53
2022-10-14T20:04:55.955Z,99901.31
2022-10-14T20:14:59.355Z,99892.28
2022-10-14T20:45:06.755Z,99841.38
2022-10-14T20:47:35.536Z,99836.38
2022-10-14T20:50:04.928Z,99832.91
2022-10-14T20:52:33.378Z,99826.66
2022-10-14T20:55:01.842Z,99823.19
2022-10-14T20:57:29.936Z,99813.47
2022-10-14T20:59:59.860Z,99817.50
2022-10-14T21:02:28.821Z,99806.94
2022-10-14T21:04:57.643Z,99807.59
2022-10-14T21:07:26.814Z,99803.84
2022-10-14T21:09:55.355Z,99800.50
2022-10-14T21:12:24.057Z,99797.75
2022-10-14T21:14:53.752Z,99800.09
2022-10-14T21:17:23.974Z,99793.06
2022-10-14T21:19:52.577Z,99788.22
2022-10-14T21:22:21.659Z,99789.31
2022-10-14T21:24:51.430Z,99795.41
2022-10-14T21:27:20.635Z,99788.91
2022-10-14T21:29:50.929Z,99781.81
2022-10-14T21:32:19.809Z,99778.91
2022-10-14T21:34:50.251Z,99780.44
2022-10-14T21:37:20.928Z,99774.63
2022-10-14T21:39:49.840Z,99771.16
2022-10-14T21:42:18.876Z,99766.16
2022-10-14T21:44:47.967Z,99767.66
2022-10-14T21:47:16.648Z,99756.41
2022-10-14T21:49:45.196Z,99753.34
2022-10-14T21:52:15.069Z,99742.78
2022-10-14T21:54:43.509Z,99738.31
2022-10-14T21:57:12.500Z,99727.63
2022-10-14T21:59:41.182Z,99724.28
2022-10-14T22:02:10.699Z,99720.53
2022-10-14T22:04:38.993Z,99719.72
2022-10-14T22:07:07.691Z,99712.19
2022-10-14T22:09:37.971Z,99706.25
2022-10-14T22:12:06.909Z,99706.09
2022-10-14T22:14:35.955Z,99699.28
2022-10-14T22:17:04.819Z,99699.69
2022-10-14T22:19:33.280Z,99699.84
2022-10-14T22:22:02.256Z,99692.19
2022-10-14T22:24:31.123Z,99687.75
2022-10-14T22:27:01.600Z,99685.00
2022-10-14T22:29:30.617Z,99675.53
2022-10-14T22:31:59.543Z,99667.50
2022-10-14T22:34:28.403Z,99650.00
2022-10-14T22:36:56.837Z,99646.13
2022-10-14T22:39:25.409Z,99639.78
2022-10-14T22:41:54.143Z,99643.34
2022-10-14T22:44:24.117Z,99634.91
2022-10-14T22:46:52.705Z,99630.06
2022-10-14T22:49:21.528Z,99626.84
2022-10-14T22:51:53.243Z,99623.13
2022-10-14T22:54:24.786Z,99615.06
2022-10-14T22:56:53.877Z,99600.22
2022-10-14T22:59:23.941Z,99600.34
2022-10-14T23:01:52.495Z,99590.34
2022-10-14T23:04:21.823Z,99582.03
2022-10-14T23:06:51.708Z,99578.31
2022-10-14T23:09:20.928Z,99565.66
2022-10-14T23:11:49.726Z,99566.78
2022-10-14T23:14:18.258Z,99562.50
2022-10-14T23:16:48.469Z,99551.81
2022-10-14T23:19:17.167Z,99542.34
2022-10-14T23:21:45.763Z,99536.66
2022-10-14T23:24:15.255Z,99528.19
2022-10-14T23:26:44.018Z,99527.66
2022-10-14T23:29:13.466Z,99525.03
2022-10-14T23:31:43.505Z,99520.84
2022-10-14T23:34:15.972Z,99513.94
2022-10-14T23:36:44.987Z,99515.03
2022-10-14T23:39:13.725Z,99516.56
2022-10-14T23:41:42.275Z,99515.16
2022-10-14T23:44:11.946Z,99522.25
2022-10-14T23:46:40.422Z,99518.06
2022-10-14T23:49:25.004Z,99512.69
2022-10-14T23:51:56.958Z,99523.22
2022-10-14T23:54:25.529Z,99515.84
2022-10-14T23:56:54.390Z,99510.16
2022-10-14T23:59:23.152Z,99502.00
